createdAt,value
2022-10-21T00:00:17.078Z,100811.56
2022-10-21T00:02:46.799Z,100818.59
2022-10-21T00:05:19.401Z,100817.69
2022-10-21T00:07:49.128Z,100819.38
2022-10-21T00:10:18.841Z,100821.19
2022-10-21T00:12:48.541Z,100825.53
2022-10-21T00:15:18.378Z,100821.97
2022-10-21T00:17:48.129Z,100814.03
2022-10-21T00:22:50.837Z,100819.31
2022-10-21T00:25:20.809Z,100813.97
2022-10-21T00:27:50.526Z,100813.09
2022-10-21T00:30:20.441Z,100805.13
2022-10-21T00:32:50.128Z,100813.03
2022-10-21T00:35:22.508Z,100809.47
2022-10-21T00:37:52.237Z,100816.50
2022-10-21T00:40:21.955Z,100802.41
2022-10-21T00:42:51.625Z,100800.63
2022-10-21T00:45:24.797Z,100797.97
2022-10-21T00:47:57.451Z,100791.84
2022-10-21T00:50:40.211Z,100790.91
2022-10-21T00:53:15.917Z,100790.09
2022-10-21T00:55:50.663Z,100778.66
2022-10-21T00:58:23.808Z,100767.16
2022-10-21T01:00:54.713Z,100772.44
2022-10-21T01:03:25.537Z,100772.41
2022-10-21T01:06:01.396Z,100771.56
2022-10-21T01:08:32.448Z,100772.44
2022-10-21T01:11:03.809Z,100768.03
2022-10-21T01:13:47.354Z,100765.41
2022-10-21T01:16:25.497Z,100765.28
2022-10-21T01:19:02.439Z,100759.13
2022-10-21T01:21:42.159Z,100755.56
2022-10-21T01:24:44.887Z,100760.78
2022-10-21T01:27:40.681Z,100768.69
2022-10-21T01:30:31.502Z,100757.13
2022-10-21T01:33:26.617Z,100745.66
2022-10-21T01:36:01.550Z,100747.34
2022-10-21T01:38:41.918Z,100748.16
2022-10-21T01:41:19.697Z,100741.06
2022-10-21T01:43:55.771Z,100740.13
2022-10-21T01:46:29.691Z,100727.72
2022-10-21T01:49:07.369Z,100736.50
2022-10-21T01:51:39.632Z,100725.91
2022-10-21T01:54:16.977Z,100731.16
2022-10-21T01:56:49.221Z,100725.81
2022-10-21T01:59:21.021Z,100723.13
2022-10-21T02:01:52.973Z,100712.56
2022-10-21T02:04:27.138Z,100700.25
2022-10-21T02:06:57.014Z,100701.97
2022-10-21T02:09:27.444Z,100701.97
2022-10-21T02:12:00.098Z,100699.34
2022-10-21T02:14:35.290Z,100709.06
2022-10-21T02:17:05.877Z,100701.13
2022-10-21T02:19:38.275Z,100699.34
2022-10-21T02:22:11.739Z,100690.59
2022-10-21T02:24:48.601Z,100697.63
2022-10-21T02:27:18.497Z,100702.06
2022-10-21T02:29:51.349Z,100706.47
2022-10-21T02:32:31.772Z,100704.78
2022-10-21T02:35:19.152Z,100696.00
2022-10-21T02:37:57.102Z,100693.41
2022-10-21T02:40:32.983Z,100695.22
2022-10-21T02:43:07.277Z,100698.84
2022-10-21T02:45:38.586Z,100703.25
2022-10-21T02:48:08.595Z,100704.22
2022-10-21T02:50:40.937Z,100706.94
2022-10-21T02:53:13.685Z,100693.81
2022-10-21T02:55:43.388Z,100693.84
2022-10-21T02:58:14.046Z,100703.59
2022-10-21T03:00:43.863Z,100694.00
2022-10-21T03:03:13.678Z,100708.16
2022-10-21T03:05:46.176Z,100702.03
2022-10-21T03:08:15.908Z,100705.56
2022-10-21T03:10:48.046Z,100701.22
2022-10-21T03:13:20.321Z,100710.97
2022-10-21T03:15:51.392Z,100720.69
2022-10-21T03:18:21.484Z,100699.56
2022-10-21T03:20:55.076Z,100688.22
2022-10-21T03:23:24.785Z,100686.63
2022-10-21T03:25:54.487Z,100686.88
2022-10-21T03:28:24.240Z,100680.03
2022-10-21T03:30:53.952Z,100678.44
2022-10-21T03:33:23.633Z,100679.47
2022-10-21T03:35:55.964Z,100685.78
2022-10-21T03:38:25.895Z,100682.34
2022-10-21T03:40:55.586Z,100677.16
2022-10-21T03:43:25.310Z,100667.56
2022-10-21T03:45:55.022Z,100653.50
2022-10-21T03:48:24.732Z,100642.97
2022-10-21T03:50:58.311Z,100634.22
2022-10-21T03:53:42.445Z,100637.72
2022-10-21T03:56:13.191Z,100623.63
2022-10-21T03:58:43.079Z,100628.03
2022-10-21T04:01:15.172Z,100616.53
2022-10-21T04:03:44.921Z,100629.75
2022-10-21T04:06:17.305Z,100628.88
2022-10-21T04:08:47.052Z,100638.59
2022-10-21T04:11:16.784Z,100632.41
2022-10-21T04:13:46.535Z,100638.56
2022-10-21T04:16:19.449Z,100626.25
2022-10-21T04:18:49.415Z,100628.88
2022-10-21T04:24:11.572Z,100636.81
2022-10-21T04:26:42.029Z,100635.09
2022-10-21T04:29:12.293Z,100630.69
2022-10-21T04:31:42.091Z,100621.00
2022-10-21T04:34:11.909Z,100617.50
2022-10-21T04:36:44.236Z,100610.41
2022-10-21T04:39:13.957Z,100611.34
2022-10-21T04:41:44.681Z,100610.41
2022-10-21T04:44:14.581Z,100617.50
2022-10-21T04:46:44.260Z,100619.22
2022-10-21T04:49:13.994Z,100613.06
2022-10-21T04:51:46.325Z,100611.28
2022-10-21T04:54:16.402Z,100607.72
2022-10-21T04:56:46.243Z,100604.16
2022-10-21T04:59:16.077Z,100599.75
2022-10-21T05:01:45.789Z,100600.63
2022-10-21T05:04:15.602Z,100597.06
2022-10-21T05:06:47.944Z,100598.84
2022-10-21T05:09:18.061Z,100595.28
2022-10-21T05:11:47.833Z,100599.66
2022-10-21T05:14:21.696Z,100589.03
2022-10-21T05:16:52.630Z,100588.97
2022-10-21T05:19:22.425Z,100588.97
2022-10-21T05:21:54.717Z,100585.41
2022-10-21T05:24:24.433Z,100590.69
2022-10-21T05:26:54.317Z,100595.94
2022-10-21T05:29:23.985Z,100594.19
2022-10-21T05:31:53.666Z,100585.34
2022-10-21T05:34:23.385Z,100593.22
2022-10-21T05:36:55.690Z,100593.16
2022-10-21T05:39:25.485Z,100587.84
2022-10-21T05:41:55.181Z,100584.31
2022-10-21T05:44:25.106Z,100595.69
2022-10-21T05:46:54.945Z,100601.78
2022-10-21T05:49:24.721Z,100600.91
2022-10-21T05:51:57.092Z,100605.28
2022-10-21T05:54:27.166Z,100616.72
2022-10-21T05:56:58.480Z,100607.00
2022-10-21T05:59:29.060Z,100604.34
2022-10-21T06:01:58.787Z,100606.06
2022-10-21T06:04:28.820Z,100613.16
2022-10-21T06:07:01.204Z,100614.03
2022-10-21T06:09:30.932Z,100607.91
2022-10-21T06:12:00.688Z,100605.28
2022-10-21T06:14:30.671Z,100598.28
2022-10-21T06:17:00.409Z,100598.28
2022-10-21T06:19:31.057Z,100595.72
2022-10-21T06:22:03.433Z,100600.16
2022-10-21T06:24:33.252Z,100601.06
2022-10-21T06:27:02.926Z,100613.44
2022-10-21T06:29:32.717Z,100611.72
2022-10-21T06:32:02.465Z,100618.81
2022-10-21T06:34:32.172Z,100630.34
2022-10-21T06:37:04.468Z,100627.69
2022-10-21T06:39:34.157Z,100624.22
2022-10-21T06:42:03.829Z,100631.25
2022-10-21T06:44:33.517Z,100629.53
2022-10-21T06:47:03.187Z,100633.09
2022-10-21T06:49:32.938Z,100638.44
2022-10-21T06:52:05.324Z,100631.41
2022-10-21T06:54:35.206Z,100636.72
2022-10-21T06:57:04.909Z,100642.06
2022-10-21T06:59:34.798Z,100642.09
2022-10-21T07:02:04.512Z,100640.38
2022-10-21T07:04:34.937Z,100644.81
2022-10-21T07:07:08.061Z,100650.16
2022-10-21T07:09:37.982Z,100648.44
2022-10-21T07:12:08.457Z,100644.06
2022-10-21T07:14:38.149Z,100648.53
2022-10-21T07:17:08.110Z,100651.19
2022-10-21T07:19:37.887Z,100647.72
2022-10-21T07:22:10.420Z,100644.25
2022-10-21T07:24:40.265Z,100646.03
2022-10-21T07:27:10.055Z,100644.31
2022-10-21T07:29:39.743Z,100640.84
2022-10-21T07:32:09.460Z,100637.38
2022-10-21T07:34:39.187Z,100623.31
2022-10-21T07:37:11.505Z,100633.09
2022-10-21T07:39:41.249Z,100633.13
2022-10-21T07:42:11.392Z,100638.50
2022-10-21T07:44:41.126Z,100639.41
2022-10-21T07:47:10.957Z,100647.38
2022-10-21T07:49:40.716Z,100647.44
2022-10-21T07:54:43.065Z,100644.84
2022-10-21T07:57:12.799Z,100649.28
2022-10-21T07:59:44.348Z,100646.72
2022-10-21T08:02:19.132Z,100655.59
2022-10-21T08:04:48.923Z,100652.97
2022-10-21T08:07:21.372Z,100653.00
2022-10-21T08:09:51.130Z,100649.53
2022-10-21T08:12:20.807Z,100649.59
2022-10-21T08:14:50.619Z,100647.84
2022-10-21T08:17:20.830Z,100650.53
2022-10-21T08:19:50.672Z,100653.22
2022-10-21T08:22:23.021Z,100653.25
2022-10-21T08:24:52.706Z,100655.94
2022-10-21T08:27:30.234Z,100648.00
2022-10-21T08:29:59.991Z,100643.63
2022-10-21T08:32:30.013Z,100642.75
2022-10-21T08:34:59.776Z,100641.00
2022-10-21T08:37:32.476Z,100646.38
2022-10-21T08:40:02.257Z,100633.13
2022-10-21T08:42:31.990Z,100629.63
2022-10-21T08:45:07.469Z,100631.41
2022-10-21T08:47:45.449Z,100634.09
2022-10-21T08:50:18.467Z,100640.31
2022-10-21T08:52:54.464Z,100639.47
2022-10-21T08:55:27.061Z,100634.19
2022-10-21T08:57:57.365Z,100632.47
2022-10-21T09:00:33.417Z,100636.03
2022-10-21T09:03:09.736Z,100633.41
2022-10-21T09:05:57.561Z,100641.34
2022-10-21T09:08:37.619Z,100637.84
2022-10-21T09:11:19.712Z,100644.06
2022-10-21T09:14:13.333Z,100645.81
2022-10-21T09:16:52.839Z,100649.38
2022-10-21T09:19:36.067Z,100654.69
2022-10-21T09:22:34.405Z,100650.28
2022-10-21T09:25:22.172Z,100641.53
2022-10-21T09:27:57.244Z,100640.66
2022-10-21T09:30:27.997Z,100638.06
2022-10-21T09:33:00.988Z,100639.84
2022-10-21T09:35:37.871Z,100639.03
2022-10-21T09:38:16.964Z,100642.59
2022-10-21T09:40:52.223Z,100643.53
2022-10-21T09:43:27.098Z,100640.03
2022-10-21T09:45:57.510Z,100632.13
2022-10-21T09:48:46.137Z,100637.44
2022-10-21T09:51:31.501Z,100644.56
2022-10-21T09:54:07.753Z,100633.13
2022-10-21T09:56:46.726Z,100638.50
2022-10-21T09:59:19.535Z,100634.97
2022-10-21T10:01:50.907Z,100637.66
2022-10-21T10:04:25.962Z,100635.94
2022-10-21T10:06:55.808Z,100637.72
2022-10-21T10:09:31.728Z,100643.03
2022-10-21T10:12:05.537Z,100644.88
2022-10-21T10:14:38.510Z,100646.66
2022-10-21T10:17:31.830Z,100648.44
2022-10-21T10:20:18.435Z,100653.81
2022-10-21T10:22:49.505Z,100656.47
2022-10-21T10:25:26.524Z,100656.50
2022-10-21T10:28:00.485Z,100657.38
2022-10-21T10:30:38.482Z,100646.78
2022-10-21T10:33:12.296Z,100646.81
2022-10-21T10:35:48.985Z,100646.84
2022-10-21T10:38:26.584Z,100640.66
2022-10-21T10:40:58.561Z,100645.09
2022-10-21T10:43:33.777Z,100644.22
2022-10-21T10:46:06.821Z,100641.56
2022-10-21T10:48:41.159Z,100640.69
2022-10-21T10:51:25.966Z,100648.69
2022-10-21T10:54:19.156Z,100646.94
2022-10-21T10:56:54.768Z,100660.25
2022-10-21T10:59:35.345Z,100662.03
2022-10-21T11:02:25.142Z,100667.34
2022-10-21T11:05:11.909Z,100655.88
2022-10-21T11:07:47.845Z,100646.16
2022-10-21T11:10:31.443Z,100654.13
2022-10-21T11:13:02.124Z,100646.22
2022-10-21T11:15:47.529Z,100652.41
2022-10-21T11:18:27.097Z,100648.88
2022-10-21T11:21:09.022Z,100659.53
2022-10-21T11:23:56.947Z,100644.47
2022-10-21T11:26:36.927Z,100649.78
2022-10-21T11:29:20.143Z,100644.47
2022-10-21T11:32:11.939Z,100643.59
2022-10-21T11:34:54.289Z,100639.19
2022-10-21T11:37:32.793Z,100639.19
2022-10-21T11:40:13.613Z,100626.81
2022-10-21T11:42:45.858Z,100627.72
2022-10-21T11:45:40.749Z,100633.06
2022-10-21T11:48:27.297Z,100625.13
2022-10-21T11:51:14.287Z,100613.59
2022-10-21T11:54:03.852Z,100608.34
2022-10-21T11:56:43.285Z,100605.69
2022-10-21T11:59:28.295Z,100611.88
2022-10-21T12:02:12.044Z,100612.78
2022-10-21T12:04:53.985Z,100612.78
2022-10-21T12:07:40.100Z,100606.59
2022-10-21T12:10:15.489Z,100600.41
2022-10-21T12:12:49.670Z,100604.84
2022-10-21T12:15:23.334Z,100601.31
2022-10-21T12:17:53.980Z,100609.28
2022-10-21T12:20:29.723Z,100604.88
2022-10-21T12:23:05.338Z,100603.97
2022-10-21T12:25:43.474Z,100604.88
2022-10-21T12:28:19.988Z,100618.16
2022-10-21T12:30:57.673Z,100620.81
2022-10-21T12:33:38.739Z,100624.34
2022-10-21T12:36:39.398Z,100623.47
2022-10-21T12:39:12.937Z,100626.13
2022-10-21T12:41:43.361Z,100615.50
2022-10-21T12:44:28.556Z,100614.63
2022-10-21T12:47:00.181Z,100621.69
2022-10-21T12:49:33.766Z,100618.16
2022-10-21T12:52:16.261Z,100615.50
2022-10-21T12:54:55.529Z,100612.88
2022-10-21T12:57:30.489Z,100615.50
2022-10-21T13:00:18.924Z,100613.72
2022-10-21T13:03:12.245Z,100616.41
2022-10-21T13:06:04.953Z,100618.19
2022-10-21T13:08:55.577Z,100625.25
2022-10-21T13:11:40.036Z,100622.59
2022-10-21T13:14:36.130Z,100621.75
2022-10-21T13:17:34.722Z,100614.63
2022-10-21T13:20:38.552Z,100615.56
2022-10-21T13:23:34.435Z,100613.78
2022-10-21T13:26:17.463Z,100606.69
2022-10-21T13:29:02.228Z,100608.47
2022-10-21T13:31:32.461Z,100612.03
2022-10-21T13:34:02.842Z,100606.72
2022-10-21T13:36:43.423Z,100614.69
2022-10-21T13:39:26.901Z,100611.16
2022-10-21T13:42:06.253Z,100618.25
2022-10-21T13:44:39.689Z,100618.25
2022-10-21T13:47:23.228Z,100609.38
2022-10-21T13:49:54.195Z,100612.03
2022-10-21T13:52:23.961Z,100610.25
2022-10-21T13:54:59.853Z,100605.84
2022-10-21T13:57:37.682Z,100602.31
2022-10-21T14:00:11.374Z,100608.50
2022-10-21T14:02:49.946Z,100603.22
2022-10-21T14:05:39.787Z,100604.06
2022-10-21T14:08:20.113Z,100597.00
2022-10-21T14:10:51.041Z,100599.66
2022-10-21T14:13:28.921Z,100599.66
2022-10-21T14:15:59.573Z,100602.31
2022-10-21T14:18:37.325Z,100600.56
2022-10-21T14:21:08.712Z,100610.31
2022-10-21T14:23:38.744Z,100612.06
2022-10-21T14:26:10.702Z,100607.66
2022-10-21T14:28:43.709Z,100606.75
2022-10-21T14:31:17.297Z,100606.75
2022-10-21T14:33:49.847Z,100605.00
2022-10-21T14:36:23.555Z,100606.75
2022-10-21T14:38:59.439Z,100615.63
2022-10-21T14:41:33.508Z,100620.06
2022-10-21T14:44:17.536Z,100617.41
2022-10-21T14:46:49.531Z,100614.75
2022-10-21T14:49:25.719Z,100616.47
2022-10-21T14:52:01.984Z,100626.25
2022-10-21T14:54:45.362Z,100627.13
2022-10-21T14:57:34.936Z,100636.88
2022-10-21T15:00:10.524Z,100630.69
2022-10-21T15:02:41.052Z,100633.31
2022-10-21T15:05:49.213Z,100643.97
2022-10-21T15:08:32.554Z,100639.53
2022-10-21T15:11:23.848Z,100635.09
2022-10-21T15:14:00.905Z,100643.97
2022-10-21T15:19:26.154Z,100643.03
2022-10-21T15:21:59.053Z,100649.25
2022-10-21T15:24:44.911Z,100645.72
2022-10-21T15:27:20.203Z,100638.63
2022-10-21T15:29:51.459Z,100646.59
2022-10-21T15:32:28.190Z,100637.72
2022-10-21T15:35:01.428Z,100644.81
2022-10-21T15:37:31.091Z,100645.69
2022-10-21T15:40:00.772Z,100643.88
2022-10-21T15:42:30.490Z,100643.00
2022-10-21T15:45:02.165Z,100642.13
2022-10-21T15:47:34.599Z,100642.13
2022-10-21T15:50:04.308Z,100640.38
2022-10-21T15:52:34.013Z,100650.09
2022-10-21T15:55:03.747Z,100651.88
2022-10-21T15:57:33.503Z,100646.53
2022-10-21T16:00:03.210Z,100655.41
2022-10-21T16:02:39.550Z,100653.66
2022-10-21T16:05:10.810Z,100655.41
2022-10-21T16:07:40.579Z,100655.41
2022-10-21T16:10:20.706Z,100658.97
2022-10-21T16:12:51.200Z,100658.06
2022-10-21T16:15:22.347Z,100660.75
2022-10-21T16:17:56.340Z,100659.84
2022-10-21T16:20:29.277Z,100670.50
2022-10-21T16:23:02.238Z,100662.50
2022-10-21T16:25:33.529Z,100662.50
2022-10-21T16:28:04.925Z,100665.16
2022-10-21T16:30:39.296Z,100663.41
2022-10-21T16:33:11.671Z,100664.28
2022-10-21T16:35:41.364Z,100661.63
2022-10-21T16:38:12.208Z,100664.28
2022-10-21T16:40:42.012Z,100660.72
2022-10-21T16:43:12.870Z,100665.16
2022-10-21T16:45:42.906Z,100663.38
2022-10-21T16:48:15.288Z,100668.69
2022-10-21T16:50:49.257Z,100674.91
2022-10-21T16:53:21.982Z,100675.81
2022-10-21T16:55:51.706Z,100676.66
2022-10-21T16:58:21.432Z,100671.38
2022-10-21T17:00:51.349Z,100667.81
2022-10-21T17:03:23.757Z,100669.59
2022-10-21T17:05:53.593Z,100675.78
2022-10-21T17:08:26.180Z,100666.91
2022-10-21T17:10:55.978Z,100672.22
2022-10-21T17:13:25.695Z,100683.75
2022-10-21T17:15:55.428Z,100681.97
2022-10-21T17:18:27.881Z,100687.28
2022-10-21T17:20:57.738Z,100683.72
2022-10-21T17:23:29.316Z,100682.81
2022-10-21T17:25:59.080Z,100690.81
2022-10-21T17:28:28.777Z,100689.91
2022-10-21T17:30:58.892Z,100698.75
2022-10-21T17:33:31.182Z,100691.66
2022-10-21T17:36:00.896Z,100696.09
2022-10-21T17:38:30.611Z,100700.50
2022-10-21T17:41:00.308Z,100704.03
2022-10-21T17:43:30.022Z,100704.03
2022-10-21T17:46:00.221Z,100710.22
2022-10-21T17:48:32.580Z,100712.88
2022-10-21T17:51:04.686Z,100714.63
2022-10-21T17:53:34.459Z,100711.97
2022-10-21T17:56:06.091Z,100719.94
2022-10-21T17:58:36.648Z,100721.72
2022-10-21T18:01:10.702Z,100721.69
2022-10-21T18:03:43.413Z,100707.53
2022-10-21T18:06:14.990Z,100721.66
2022-10-21T18:08:45.772Z,100719.00
2022-10-21T18:11:17.570Z,100728.72
2022-10-21T18:13:50.792Z,100726.94
2022-10-21T18:16:24.886Z,100723.38
2022-10-21T18:19:00.200Z,100726.91
2022-10-21T18:21:33.087Z,100730.41
2022-10-21T18:24:02.899Z,100737.47
2022-10-21T18:26:34.173Z,100736.56
2022-10-21T18:29:05.304Z,100738.31
2022-10-21T18:31:37.733Z,100740.06
2022-10-21T18:34:10.231Z,100740.03
2022-10-21T18:36:40.960Z,100745.31
2022-10-21T18:39:11.068Z,100744.41
2022-10-21T18:41:41.072Z,100752.34
2022-10-21T18:44:13.509Z,100754.97
2022-10-21T18:46:46.782Z,100747.88
2022-10-21T18:49:19.499Z,100747.91
2022-10-21T18:51:49.235Z,100749.63
2022-10-21T18:54:19.024Z,100747.81
2022-10-21T18:56:48.723Z,100743.38
2022-10-21T18:59:18.466Z,100746.91
2022-10-21T19:01:48.223Z,100750.41
2022-10-21T19:04:20.617Z,100745.09
2022-10-21T19:06:50.479Z,100751.25
2022-10-21T19:09:22.779Z,100753.03
2022-10-21T19:11:52.713Z,100744.13
2022-10-21T19:14:22.734Z,100741.44
2022-10-21T19:16:53.239Z,100748.50
2022-10-21T19:19:25.529Z,100740.47
2022-10-21T19:21:55.349Z,100742.19
2022-10-21T19:24:25.044Z,100744.84
2022-10-21T19:26:56.945Z,100733.28
2022-10-21T19:29:27.864Z,100739.44
2022-10-21T19:31:57.596Z,100734.94
2022-10-21T19:34:29.943Z,100732.25
2022-10-21T19:36:59.664Z,100738.41
2022-10-21T19:39:29.353Z,100733.06
2022-10-21T19:41:59.736Z,100740.13
2022-10-21T19:44:29.535Z,100739.19
2022-10-21T19:46:59.228Z,100746.19
2022-10-21T19:49:31.638Z,100747.94
2022-10-21T19:52:01.324Z,100750.56
2022-10-21T19:54:31.127Z,100747.00
2022-10-21T19:57:00.849Z,100758.44
2022-10-21T19:59:33.505Z,100749.53
2022-10-21T20:02:03.185Z,100753.97
2022-10-21T20:04:36.150Z,100757.47
2022-10-21T20:07:06.173Z,100762.75
2022-10-21T20:09:37.987Z,100764.47
2022-10-21T20:12:08.921Z,100763.56
2022-10-21T20:14:38.624Z,100760.03
2022-10-21T20:17:08.334Z,100761.75
2022-10-21T20:19:40.665Z,100767.03
2022-10-21T20:22:10.395Z,100761.69
2022-10-21T20:24:46.276Z,100763.44
2022-10-21T20:27:16.389Z,100762.53
2022-10-21T20:29:46.128Z,100760.72
2022-10-21T20:32:15.808Z,100769.53
2022-10-21T20:34:49.118Z,100774.84
2022-10-21T20:37:18.856Z,100780.09
2022-10-21T20:39:48.601Z,100781.88
2022-10-21T20:42:18.284Z,100788.94
2022-10-21T20:44:47.959Z,100780.97
2022-10-21T20:47:19.232Z,100776.53
2022-10-21T20:49:51.645Z,100786.22
2022-10-21T20:52:21.343Z,100780.88
2022-10-21T20:54:53.843Z,100777.34
2022-10-21T20:57:23.742Z,100776.44
2022-10-21T20:59:53.437Z,100779.06
2022-10-21T21:02:23.120Z,100775.47
2022-10-21T21:04:55.536Z,100779.91
2022-10-21T21:07:25.349Z,100779.84
2022-10-21T21:10:02.674Z,100780.75
2022-10-21T21:12:33.213Z,100774.53
2022-10-21T21:15:03.881Z,100769.19
2022-10-21T21:17:33.600Z,100766.50
2022-10-21T21:20:06.000Z,100772.66
2022-10-21T21:22:39.014Z,100767.31
2022-10-21T21:25:10.352Z,100770.81
2022-10-21T21:27:40.352Z,100768.97
2022-10-21T21:30:11.638Z,100759.25
2022-10-21T21:32:41.562Z,100754.78
2022-10-21T21:35:14.556Z,100761.78
2022-10-21T21:37:44.238Z,100760.00
2022-10-21T21:40:14.573Z,100766.13
2022-10-21T21:42:44.398Z,100764.28
2022-10-21T21:45:14.226Z,100766.94
2022-10-21T21:47:43.917Z,100765.13
2022-10-21T21:50:16.217Z,100758.88
2022-10-21T21:52:46.431Z,100761.53
2022-10-21T21:55:16.355Z,100770.31
2022-10-21T21:57:46.065Z,100768.50
2022-10-21T22:00:16.939Z,100772.84
2022-10-21T22:02:47.059Z,100763.97
2022-10-21T22:05:22.490Z,100772.75
2022-10-21T22:07:55.952Z,100769.16
2022-10-21T22:10:25.675Z,100773.56
2022-10-21T22:12:56.646Z,100777.06
2022-10-21T22:15:47.216Z,100777.91
2022-10-21T22:18:16.498Z,100785.84
2022-10-21T22:20:48.815Z,100779.69
2022-10-21T22:23:20.032Z,100777.03
2022-10-21T22:25:49.869Z,100780.56
2022-10-21T22:28:19.571Z,100781.44
2022-10-21T22:30:57.294Z,100773.50
2022-10-21T22:33:27.037Z,100775.28
2022-10-21T22:35:59.369Z,100778.81
2022-10-21T22:38:29.350Z,100776.16
2022-10-21T22:41:00.877Z,100772.66
2022-10-21T22:43:32.542Z,100775.31
2022-10-21T22:46:09.878Z,100777.97
2022-10-21T22:48:51.594Z,100770.91
2022-10-21T22:51:23.980Z,100774.44
2022-10-21T22:53:56.410Z,100768.25
2022-10-21T22:56:26.783Z,100772.66
2022-10-21T22:58:57.334Z,100778.84
2022-10-21T23:01:30.268Z,100776.16
2022-10-21T23:04:02.816Z,100783.25
2022-10-21T23:06:36.562Z,100778.84
2022-10-21T23:09:07.727Z,100782.38
2022-10-21T23:11:37.612Z,100781.53
2022-10-21T23:14:09.551Z,100783.28
2022-10-21T23:16:39.554Z,100783.34
2022-10-21T23:19:13.463Z,100781.56
2022-10-21T23:21:45.764Z,100778.03
2022-10-21T23:24:15.700Z,100774.56
2022-10-21T23:26:45.364Z,100782.53
2022-10-21T23:29:15.085Z,100787.81
2022-10-21T23:31:44.813Z,100786.09
2022-10-21T23:34:14.502Z,100785.22
2022-10-21T23:36:46.823Z,100778.16
2022-10-21T23:39:16.503Z,100789.66
2022-10-21T23:41:46.193Z,100782.56
2022-10-21T23:44:16.416Z,100780.81
2022-10-21T23:46:46.113Z,100779.88
2022-10-21T23:49:16.221Z,100776.28
2022-10-21T23:51:48.502Z,100773.63
2022-10-21T23:54:18.377Z,100777.13
2022-10-21T23:56:48.272Z,100778.88
2022-10-21T23:59:17.983Z,100777.06
